FVMD weather

Mount Darwin Airport
Mashonaland Central Province, Zimbabwe

Public forecast

Using degrees Celsius for public forecast. Weather courtesy of forecast.io.

METAR (pilot weather report)

Closest report is Robert Gabriel Mugabe International Airport, 74.8 nm (138.5 km) SSW. Retrieved 2019/05/23 02:00 UTC (44 minutes ago):

FVRG 230200Z 09006KT CAVOK 08/06 Q1025 NOSIG

TAF (pilot weather forecast)

Forecast is more than 6 hours old.

Closest forecast is Robert Gabriel Mugabe International Airport, 74.8 nm (138.5 km) SSW. Retrieved 2019/05/22 18:00 UTC (9 hours ago):

TAF FVRG 221600Z 2218/2324 09008KT CAVOK